createdAt,value
2023-07-30T00:00:47.106Z,10.98
2023-07-30T00:03:53.506Z,8.73
2023-07-30T00:07:00.762Z,9.20
2023-07-30T00:10:06.484Z,9.60
2023-07-30T00:13:12.045Z,8.23
2023-07-30T00:16:19.300Z,8.55
2023-07-30T00:19:25.375Z,8.03
2023-07-30T00:22:34.515Z,8.58
2023-07-30T00:25:39.552Z,8.13
2023-07-30T00:28:44.910Z,7.80
2023-07-30T00:31:50.864Z,7.70
2023-07-30T00:34:55.800Z,8.63
2023-07-30T00:38:01.636Z,9.40
2023-07-30T00:41:07.976Z,10.55
2023-07-30T00:44:13.412Z,7.83
2023-07-30T00:47:19.421Z,7.95
2023-07-30T00:50:26.509Z,8.08
2023-07-30T00:53:33.391Z,7.90
2023-07-30T00:56:40.885Z,8.20
2023-07-30T00:59:47.760Z,9.65
2023-07-30T01:02:54.965Z,9.38
2023-07-30T01:06:01.696Z,9.60
2023-07-30T01:09:07.801Z,7.45
2023-07-30T01:12:13.541Z,7.12
2023-07-30T01:15:19.398Z,8.63
2023-07-30T01:18:25.386Z,8.50
2023-07-30T01:21:30.702Z,9.60
2023-07-30T01:24:37.228Z,8.18
2023-07-30T01:27:45.079Z,7.92
2023-07-30T01:30:57.746Z,10.25
2023-07-30T01:34:04.564Z,8.98
2023-07-30T01:37:09.920Z,9.15
2023-07-30T01:40:16.301Z,8.68
2023-07-30T01:43:23.183Z,8.63
2023-07-30T01:46:31.198Z,7.30
2023-07-30T01:49:37.253Z,7.28
2023-07-30T01:52:44.218Z,8.23
2023-07-30T01:55:54.593Z,9.05
2023-07-30T01:59:02.178Z,12.58
2023-07-30T02:02:08.376Z,7.90
2023-07-30T02:05:14.627Z,7.60
2023-07-30T02:08:24.252Z,8.85
2023-07-30T02:11:30.820Z,8.98
2023-07-30T02:14:36.380Z,8.15
2023-07-30T02:17:41.838Z,8.53
2023-07-30T02:20:48.110Z,7.70
2023-07-30T02:23:53.445Z,6.97
2023-07-30T02:26:59.102Z,7.47
2023-07-30T02:30:05.276Z,7.87
2023-07-30T02:33:11.021Z,10.23
2023-07-30T02:36:17.278Z,7.83
2023-07-30T02:39:23.639Z,8.60
2023-07-30T02:42:29.804Z,8.13
2023-07-30T02:45:37.586Z,9.48
2023-07-30T02:48:43.566Z,8.93
2023-07-30T02:51:49.320Z,8.33
2023-07-30T02:54:55.878Z,8.98
2023-07-30T02:58:00.830Z,8.30
2023-07-30T03:01:07.007Z,8.53
2023-07-30T03:04:14.430Z,10.13
2023-07-30T03:07:20.757Z,8.30
2023-07-30T03:10:25.689Z,9.55
2023-07-30T03:13:32.965Z,8.15
2023-07-30T03:16:38.988Z,8.75
2023-07-30T03:19:45.935Z,9.53
2023-07-30T03:22:52.385Z,10.30
2023-07-30T03:25:59.261Z,8.50
2023-07-30T03:29:05.846Z,12.30
2023-07-30T03:32:12.840Z,9.38
2023-07-30T03:35:20.509Z,10.25
2023-07-30T03:38:25.165Z,12.73
2023-07-30T03:41:33.248Z,10.98
2023-07-30T03:44:39.556Z,8.20
2023-07-30T03:47:45.654Z,7.97
2023-07-30T03:50:54.925Z,8.50
2023-07-30T03:54:01.727Z,10.15
2023-07-30T03:57:07.659Z,9.33
2023-07-30T04:00:13.208Z,20.02
2023-07-30T04:03:19.948Z,17.35
2023-07-30T04:06:24.924Z,16.93
2023-07-30T04:09:31.205Z,25.57
2023-07-30T04:12:38.258Z,29.05
2023-07-30T04:15:45.066Z,31.33
2023-07-30T04:18:51.433Z,26.25
2023-07-30T04:21:51.105Z,17.82
2023-07-30T04:24:58.118Z,14.40
2023-07-30T04:28:04.752Z,14.13
2023-07-30T04:31:05.013Z,11.28
2023-07-30T04:34:10.350Z,11.88
2023-07-30T04:37:15.726Z,10.45
2023-07-30T04:40:25.549Z,9.95
2023-07-30T04:43:31.631Z,9.98
2023-07-30T04:46:38.123Z,9.45
2023-07-30T04:49:47.635Z,6.90
2023-07-30T04:52:54.102Z,6.92
2023-07-30T04:56:00.595Z,6.83
2023-07-30T04:59:08.077Z,6.95
2023-07-30T05:02:14.426Z,7.03
2023-07-30T05:05:21.230Z,6.47
2023-07-30T05:08:27.088Z,7.55
2023-07-30T05:11:35.695Z,6.72
2023-07-30T05:14:41.821Z,9.50
2023-07-30T05:17:49.882Z,5.22
2023-07-30T05:20:55.272Z,5.50
2023-07-30T05:24:01.159Z,11.00
2023-07-30T05:27:07.783Z,11.40
2023-07-30T05:30:25.512Z,11.25
2023-07-30T05:33:31.332Z,6.70
2023-07-30T05:36:36.866Z,7.80
2023-07-30T05:39:42.756Z,7.05
2023-07-30T05:42:48.497Z,6.20
2023-07-30T05:45:54.032Z,5.85
2023-07-30T05:49:03.021Z,4.42
2023-07-30T05:52:08.436Z,5.75
2023-07-30T05:55:08.440Z,6.12
2023-07-30T05:58:14.601Z,6.62
2023-07-30T06:01:21.459Z,5.30
2023-07-30T06:04:28.311Z,5.30
2023-07-30T06:07:34.605Z,4.70
2023-07-30T06:10:41.460Z,4.37
2023-07-30T06:13:47.123Z,6.97
2023-07-30T06:16:52.580Z,7.05
2023-07-30T06:19:58.482Z,6.28
2023-07-30T06:23:03.603Z,5.33
2023-07-30T06:26:08.961Z,5.60
2023-07-30T06:29:16.048Z,4.30
2023-07-30T06:32:23.813Z,7.03
2023-07-30T06:35:30.600Z,6.85
2023-07-30T06:38:38.577Z,4.95
2023-07-30T06:41:44.626Z,4.53
2023-07-30T06:44:51.088Z,6.37
2023-07-30T06:47:56.991Z,5.72
2023-07-30T06:51:02.873Z,4.37
2023-07-30T06:54:08.203Z,4.87
2023-07-30T06:57:13.872Z,5.20
2023-07-30T07:00:20.430Z,5.10
2023-07-30T07:03:26.731Z,4.85
2023-07-30T07:06:32.972Z,5.72
2023-07-30T07:09:38.427Z,4.08
2023-07-30T07:12:46.023Z,4.08
2023-07-30T07:15:54.018Z,3.33
2023-07-30T07:19:00.706Z,3.45
2023-07-30T07:22:09.242Z,5.65
2023-07-30T07:25:15.376Z,4.60
2023-07-30T07:28:22.611Z,3.67
2023-07-30T07:31:29.071Z,4.80
2023-07-30T07:34:34.105Z,3.70
2023-07-30T07:37:41.360Z,3.75
2023-07-30T07:43:55.554Z,3.60
2023-07-30T07:47:01.296Z,3.87
2023-07-30T07:50:07.248Z,3.58
2023-07-30T07:53:14.642Z,5.90
2023-07-30T07:56:20.292Z,3.12
2023-07-30T07:59:25.533Z,3.42
2023-07-30T08:02:32.657Z,3.67
2023-07-30T08:05:39.377Z,6.10
2023-07-30T08:08:47.345Z,3.12
2023-07-30T08:11:54.697Z,4.83
2023-07-30T08:15:04.117Z,2.87
2023-07-30T08:18:09.114Z,3.17
2023-07-30T08:21:16.170Z,3.00
2023-07-30T08:24:22.330Z,3.15
2023-07-30T08:27:29.511Z,4.65
2023-07-30T08:30:36.765Z,4.60
2023-07-30T08:33:44.707Z,3.85
2023-07-30T08:36:45.971Z,3.62
2023-07-30T08:39:49.844Z,3.25
2023-07-30T08:42:55.040Z,5.45
2023-07-30T08:46:01.564Z,3.12
2023-07-30T08:49:08.456Z,3.17
2023-07-30T08:52:14.323Z,3.50
2023-07-30T08:55:20.967Z,5.00
2023-07-30T08:58:26.713Z,5.22
2023-07-30T09:01:33.189Z,3.83
2023-07-30T09:04:40.307Z,3.75
2023-07-30T09:07:48.106Z,3.22
2023-07-30T09:10:54.157Z,3.30
2023-07-30T09:14:01.252Z,5.50
2023-07-30T09:17:12.816Z,3.02
2023-07-30T09:20:29.903Z,5.45
2023-07-30T09:23:36.176Z,5.75
2023-07-30T09:26:43.036Z,4.55
2023-07-30T09:29:48.403Z,6.30
2023-07-30T09:32:54.538Z,5.20
2023-07-30T09:36:01.714Z,4.08
2023-07-30T09:39:08.233Z,4.87
2023-07-30T09:42:19.486Z,3.55
2023-07-30T09:45:40.098Z,3.25
2023-07-30T09:48:48.106Z,6.25
2023-07-30T09:51:53.696Z,5.70
2023-07-30T09:55:00.320Z,6.70
2023-07-30T09:58:10.665Z,8.28
2023-07-30T10:01:16.744Z,5.75
2023-07-30T10:04:24.732Z,4.55
2023-07-30T10:07:33.923Z,4.60
2023-07-30T10:10:39.966Z,3.50
2023-07-30T10:13:46.617Z,3.58
2023-07-30T10:16:52.265Z,3.65
2023-07-30T10:19:58.809Z,4.17
2023-07-30T10:23:09.202Z,4.20
2023-07-30T10:26:17.927Z,5.72
2023-07-30T10:29:37.377Z,3.98
2023-07-30T10:32:47.365Z,4.25
2023-07-30T10:36:03.721Z,4.12
2023-07-30T10:39:13.216Z,3.12
2023-07-30T10:42:23.334Z,3.42
2023-07-30T10:45:29.918Z,3.55
2023-07-30T10:48:52.145Z,3.12
2023-07-30T10:51:58.401Z,3.98
2023-07-30T10:55:05.097Z,4.03
2023-07-30T10:58:10.648Z,25.43
2023-07-30T11:01:20.836Z,74.37
2023-07-30T11:04:29.021Z,53.28
2023-07-30T11:07:37.655Z,15.88
2023-07-30T11:10:43.095Z,7.78
2023-07-30T11:13:56.522Z,3.98
2023-07-30T11:17:07.705Z,4.85
2023-07-30T11:20:14.488Z,4.72
2023-07-30T11:23:38.461Z,4.20
2023-07-30T11:26:45.554Z,3.12
2023-07-30T11:29:52.955Z,3.45
2023-07-30T11:33:00.048Z,5.40
2023-07-30T11:36:06.485Z,3.95
2023-07-30T11:39:12.254Z,7.62
2023-07-30T11:42:18.062Z,2.95
2023-07-30T11:45:36.933Z,3.72
2023-07-30T11:48:47.056Z,4.22
2023-07-30T11:52:01.387Z,3.45
2023-07-30T11:55:20.751Z,4.42
2023-07-30T11:58:30.808Z,3.30
2023-07-30T12:01:37.246Z,3.47
2023-07-30T12:05:11.277Z,2.92
2023-07-30T12:08:10.300Z,3.33
2023-07-30T12:11:23.222Z,3.90
2023-07-30T12:17:34.868Z,3.27
2023-07-30T12:20:43.456Z,3.33
2023-07-30T12:23:51.460Z,2.90
2023-07-30T12:26:56.785Z,5.10
2023-07-30T12:30:03.763Z,4.45
2023-07-30T12:33:09.858Z,2.98
2023-07-30T12:36:15.271Z,2.90
2023-07-30T12:39:20.106Z,4.62
2023-07-30T12:42:28.040Z,3.87
2023-07-30T12:45:35.435Z,3.83
2023-07-30T12:48:42.212Z,2.95
2023-07-30T12:51:48.987Z,4.72
2023-07-30T12:54:54.959Z,5.15
2023-07-30T12:57:59.458Z,4.72
2023-07-30T13:01:05.103Z,2.98
2023-07-30T13:04:10.180Z,4.08
2023-07-30T13:07:15.898Z,4.78
2023-07-30T13:10:23.409Z,3.27
2023-07-30T13:13:32.071Z,2.40
2023-07-30T13:16:32.368Z,4.12
2023-07-30T13:19:18.573Z,3.08
2023-07-30T13:22:13.333Z,4.12
2023-07-30T13:25:20.994Z,3.08
2023-07-30T13:28:27.276Z,3.00
2023-07-30T13:31:34.598Z,5.08
2023-07-30T13:34:41.906Z,4.70
2023-07-30T13:37:48.265Z,4.15
2023-07-30T13:40:55.498Z,4.28
2023-07-30T13:43:54.961Z,4.08
2023-07-30T13:47:02.354Z,3.37
2023-07-30T13:50:10.455Z,3.95
2023-07-30T13:53:16.106Z,3.95
2023-07-30T13:56:22.700Z,6.20
2023-07-30T13:59:29.143Z,3.70
2023-07-30T14:02:36.881Z,3.90
2023-07-30T14:05:44.337Z,4.15
2023-07-30T14:08:51.228Z,3.60
2023-07-30T14:11:58.001Z,5.72
2023-07-30T14:15:04.520Z,5.10
2023-07-30T14:18:09.650Z,4.35
2023-07-30T14:21:16.788Z,6.37
2023-07-30T14:24:23.362Z,6.12
2023-07-30T14:27:29.938Z,2.77
2023-07-30T14:30:36.412Z,3.87
2023-07-30T14:33:45.361Z,5.33
2023-07-30T14:36:51.416Z,7.80
2023-07-30T14:39:58.643Z,3.72
2023-07-30T14:43:04.230Z,3.83
2023-07-30T14:46:09.621Z,4.22
2023-07-30T14:49:18.111Z,3.90
2023-07-30T14:52:24.485Z,3.90
2023-07-30T14:55:30.302Z,6.60
2023-07-30T14:58:35.507Z,6.80
2023-07-30T15:01:45.526Z,4.35
2023-07-30T15:04:52.221Z,4.25
2023-07-30T15:07:59.491Z,3.67
2023-07-30T15:11:06.060Z,39.23
2023-07-30T15:14:11.248Z,8.28
2023-07-30T15:17:17.610Z,5.05
2023-07-30T15:20:23.475Z,4.33
2023-07-30T15:23:28.678Z,3.17
2023-07-30T15:26:36.388Z,2.62
2023-07-30T15:29:41.916Z,4.05
2023-07-30T15:32:47.907Z,4.33
2023-07-30T15:35:53.472Z,4.65
2023-07-30T15:39:01.735Z,3.72
2023-07-30T15:42:12.522Z,3.60
2023-07-30T15:45:19.155Z,5.47
2023-07-30T15:48:25.856Z,3.77
2023-07-30T15:51:34.459Z,4.90
2023-07-30T15:54:50.999Z,3.47
2023-07-30T15:57:56.568Z,3.52
2023-07-30T16:01:01.978Z,3.75
2023-07-30T16:04:14.275Z,5.33
2023-07-30T16:07:21.519Z,7.25
2023-07-30T16:10:28.030Z,4.28
2023-07-30T16:13:37.904Z,6.20
2023-07-30T16:16:47.170Z,6.28
2023-07-30T16:19:54.571Z,5.00
2023-07-30T16:23:00.281Z,6.12
2023-07-30T16:26:05.336Z,7.15
2023-07-30T16:29:14.093Z,5.35
2023-07-30T16:32:19.898Z,8.30
2023-07-30T16:35:25.983Z,17.40
2023-07-30T16:38:34.803Z,10.32
2023-07-30T16:41:41.148Z,13.45
2023-07-30T16:44:47.840Z,9.63
2023-07-30T16:48:00.944Z,10.15
2023-07-30T16:51:06.853Z,8.43
2023-07-30T16:54:18.646Z,6.97
2023-07-30T16:57:28.720Z,13.03
2023-07-30T17:00:35.105Z,12.78
2023-07-30T17:03:40.347Z,20.48
2023-07-30T17:06:46.669Z,15.35
2023-07-30T17:09:53.088Z,16.05
2023-07-30T17:13:00.830Z,20.12
2023-07-30T17:16:08.110Z,13.35
2023-07-30T17:19:14.327Z,13.00
2023-07-30T17:22:21.790Z,16.05
2023-07-30T17:25:27.467Z,18.35
2023-07-30T17:28:32.478Z,14.87
2023-07-30T17:35:05.532Z,15.90
2023-07-30T17:38:12.418Z,11.78
2023-07-30T17:41:17.303Z,13.08
2023-07-30T17:44:22.785Z,13.18
2023-07-30T17:47:29.329Z,13.25
2023-07-30T17:50:35.869Z,15.40
2023-07-30T17:53:42.790Z,20.72
2023-07-30T17:56:49.149Z,18.07
2023-07-30T17:59:57.045Z,16.17
2023-07-30T18:03:06.526Z,16.57
2023-07-30T18:06:13.126Z,17.02
2023-07-30T18:09:21.158Z,14.73
2023-07-30T18:12:27.137Z,17.17
2023-07-30T18:15:32.900Z,13.22
2023-07-30T18:18:39.528Z,12.88
2023-07-30T18:21:45.613Z,12.98
2023-07-30T18:24:54.767Z,16.37
2023-07-30T18:28:01.412Z,29.70
2023-07-30T18:31:07.288Z,39.33
2023-07-30T18:34:14.174Z,56.33
2023-07-30T18:37:21.096Z,67.03
2023-07-30T18:40:28.353Z,69.62
2023-07-30T18:43:36.162Z,56.63
2023-07-30T18:46:43.549Z,54.45
2023-07-30T18:49:48.883Z,74.90
2023-07-30T18:52:55.258Z,67.35
2023-07-30T18:56:02.917Z,66.17
2023-07-30T18:59:12.193Z,53.40
2023-07-30T19:02:19.384Z,55.88
2023-07-30T19:05:25.351Z,48.00
2023-07-30T19:08:35.183Z,46.15
2023-07-30T19:11:41.459Z,48.63
2023-07-30T19:14:48.955Z,45.70
2023-07-30T19:17:55.351Z,54.53
2023-07-30T19:21:03.052Z,55.92
2023-07-30T19:24:08.632Z,57.55
2023-07-30T19:27:14.338Z,56.98
2023-07-30T19:30:22.489Z,46.95
2023-07-30T19:33:28.580Z,42.35
2023-07-30T19:36:35.579Z,41.75
2023-07-30T19:39:41.853Z,40.58
2023-07-30T19:42:48.528Z,38.05
2023-07-30T19:45:55.786Z,35.28
2023-07-30T19:49:01.672Z,42.30
2023-07-30T19:52:08.953Z,35.92
2023-07-30T19:55:15.532Z,35.75
2023-07-30T19:58:23.940Z,35.83
2023-07-30T20:01:30.843Z,38.00
2023-07-30T20:04:37.307Z,36.00
2023-07-30T20:07:44.701Z,35.60
2023-07-30T20:10:51.588Z,31.12
2023-07-30T20:14:17.759Z,22.65
2023-07-30T20:17:24.847Z,23.57
2023-07-30T20:20:31.183Z,21.68
2023-07-30T20:23:38.544Z,26.15
2023-07-30T20:26:45.724Z,23.75
2023-07-30T20:29:51.693Z,35.52
2023-07-30T20:32:58.941Z,29.67
2023-07-30T20:36:05.649Z,33.65
2023-07-30T20:39:11.048Z,32.42
2023-07-30T20:42:15.949Z,37.83
2023-07-30T20:45:21.791Z,33.23
2023-07-30T20:48:26.791Z,29.80
2023-07-30T20:51:32.384Z,34.15
2023-07-30T20:54:38.638Z,29.30
2023-07-30T20:57:45.314Z,29.77
2023-07-30T21:00:51.500Z,28.27
2023-07-30T21:03:57.555Z,36.85
2023-07-30T21:07:07.510Z,32.33
2023-07-30T21:10:13.164Z,36.10
2023-07-30T21:13:19.008Z,34.90
2023-07-30T21:16:25.494Z,32.08
2023-07-30T21:19:31.561Z,40.55
2023-07-30T21:22:36.733Z,34.78
2023-07-30T21:25:42.028Z,38.40
2023-07-30T21:28:47.678Z,37.78
2023-07-30T21:31:54.411Z,40.17
2023-07-30T21:35:01.553Z,43.68
2023-07-30T21:38:08.529Z,43.25
2023-07-30T21:41:13.674Z,34.43
2023-07-30T21:44:20.751Z,30.27
2023-07-30T21:47:26.332Z,21.45
2023-07-30T21:50:32.560Z,25.90
2023-07-30T21:53:37.713Z,22.50
2023-07-30T21:56:44.891Z,18.95
2023-07-30T21:59:50.542Z,27.15
2023-07-30T22:02:57.903Z,16.42
2023-07-30T22:06:02.891Z,17.70
2023-07-30T22:09:10.926Z,14.23
2023-07-30T22:12:17.340Z,14.60
2023-07-30T22:15:24.063Z,13.93
2023-07-30T22:18:30.723Z,13.22
2023-07-30T22:21:37.986Z,12.10
2023-07-30T22:24:43.863Z,11.03
2023-07-30T22:28:02.861Z,18.95
2023-07-30T22:30:58.989Z,11.70
2023-07-30T22:34:06.435Z,8.33
2023-07-30T22:37:12.502Z,11.25
2023-07-30T22:40:20.008Z,11.78
2023-07-30T22:43:25.119Z,8.70
2023-07-30T22:46:30.402Z,10.05
2023-07-30T22:49:36.943Z,9.00
2023-07-30T22:52:41.439Z,9.38
2023-07-30T22:55:46.614Z,9.40
2023-07-30T22:58:52.166Z,11.73
2023-07-30T23:01:57.915Z,7.80
2023-07-30T23:05:03.681Z,11.28
2023-07-30T23:08:08.507Z,10.82
2023-07-30T23:11:15.490Z,8.50
2023-07-30T23:14:24.003Z,8.38
2023-07-30T23:17:30.996Z,12.43
2023-07-30T23:20:40.233Z,10.93
2023-07-30T23:23:46.575Z,7.70
2023-07-30T23:26:53.066Z,8.55
2023-07-30T23:29:58.625Z,10.03
2023-07-30T23:33:04.408Z,9.10
2023-07-30T23:36:11.451Z,8.33
2023-07-30T23:39:17.319Z,9.13
2023-07-30T23:42:23.781Z,8.88
2023-07-30T23:45:29.331Z,8.38
2023-07-30T23:48:37.150Z,10.00
2023-07-30T23:51:43.704Z,8.05
2023-07-30T23:54:50.272Z,10.38
2023-07-30T23:57:56.747Z,8.40
